NOAA/GLERL Met Station at Michigan City, IN

Previous 5 days (top of hour only)
See slso Previous 3 Hours (2 minute increments)
Jump down to Data
Switch to [English][Metric]
Zoom: Click and drag, Pan: shift-click and drag, Unzoom: double-click, Unzoom All





Zoom: Click and drag, Pan: shift-click and drag, Unzoom: double-click, Unzoom All

Note: Speed = mean wind during 2-minute period at top of hour,
Gust = max wind during 2-minute period at top of hour,
Peak = max wind during entire hour.
• See also 5-day windrose plot

NOAA/GLERL Met Station at Michigan City, IN

Previous 5 days (top of hour only)
See slso Previous 3 Hours (2 minute increments)
Jump up to Graphs
Switch to [English][Metric]
                  Wind  Wind  Wind   Air   Dew   Rel     Sta   PAR
                   Spd   Gst   Dir  Temp    Pt   Hum    Pres uE/m2/
YYYY-MM-DD   CDT   kts   kts   deg     F     F     %   in Hg   sec
2016-07-23 11:00   3.7   4.7   291  81.5  75.2  80.8    0.00     0
2016-07-23 10:00   6.0   6.2   241  77.9  75.7  92.9    0.00     0
2016-07-23 09:00   6.0   6.8   211  77.7  75.7  93.3    0.00     0
2016-07-23 08:00   7.0   7.6   217  77.4  75.4  93.6    0.00     0
2016-07-23 07:00   4.7   5.2   213  77.2  75.1  93.2    0.00     0
2016-07-23 06:00   5.6   6.0   187  76.5  74.8  94.6    0.00     0
2016-07-23 05:00   5.4   5.8   184  77.2  75.1  93.2    0.00     0
2016-07-23 04:00   7.2   7.4   187  77.0  75.0  93.4    0.00     0
2016-07-23 03:00   7.2   7.6   180  77.7  74.3  89.1    0.00     0
2016-07-23 02:00   6.8   7.4   180  77.5  74.2  89.3    0.00     0
2016-07-23 01:00   8.9  10.1   179  77.7  73.9  87.9    0.00     0
2016-07-23 00:00   8.7  10.5   171  78.4  73.8  85.4    0.00     0
2016-07-22 23:00   5.2   6.4   149  79.7  73.4  80.7    0.00     0
2016-07-22 22:00   3.9   4.5   160  80.6  71.1  72.3    0.00     0
2016-07-22 20:00   0.2   0.8   287  82.6  68.3  61.5    0.00     0
2016-07-22 19:00   2.1   2.5    39  80.8  67.5  63.4    0.00     0
2016-07-22 18:00   4.3   4.7     9  80.1  71.0  73.4    0.00     0
2016-07-22 17:00   2.5   2.5    17  80.4  69.6  69.2    0.00     0
2016-07-22 16:00   0.4   1.0   357  81.3  69.6  67.1    0.00     0
2016-07-22 15:00   1.2   1.4   233  79.9  68.4  67.6    0.00     0
2016-07-22 14:00   3.5   3.9   240  77.5  69.7  76.4    0.00     0
2016-07-22 13:00   8.7   9.3   231  77.2  68.2  73.5    0.00     0
2016-07-22 12:00   5.1   5.4   213  75.9  68.3  76.8    0.00     0
2016-07-22 11:00   7.2   8.0   227  75.0  69.9  83.7    0.00     0
2016-07-22 10:00   7.0   7.6   219  75.0  69.5  82.8    0.00     0
2016-07-22 09:00   9.9  10.9   228  73.9  70.7  89.5    0.00     0
2016-07-22 08:00   5.6   6.2   227  74.1  69.6  85.5    0.00     0
2016-07-22 07:00   4.1   5.1   216  73.2  69.3  87.2    0.00     0
2016-07-22 06:00   6.0   7.2   166  73.2  69.1  86.8    0.00     0
2016-07-22 05:00   7.0   7.6   194  73.9  69.8  86.6    0.00     0
2016-07-22 04:00   7.6   9.3   223  74.8  69.6  83.4    0.00     0
2016-07-22 03:00  22.7  26.6     9  76.5  68.3  75.4    0.00     0
2016-07-22 02:00  18.7  22.7   165  79.5  64.0  58.6    0.00     0
2016-07-22 01:00  13.0  14.0   130  73.9  69.6  86.1    0.00     0
2016-07-22 00:00  20.2  21.8   289  74.8  71.6  89.4    0.00     0
2016-07-21 23:00  16.3  17.7   271  75.7  72.6  89.8    0.00     0
2016-07-21 22:00  11.7  14.2   165  80.4  77.2  89.7    0.00     0
2016-07-21 21:00  13.2  15.4   149  80.2  75.8  86.0    0.00     0
2016-07-21 20:00  10.7  13.4   152  80.6  74.1  80.4    0.00     0
2016-07-21 19:00  13.0  17.1   152  81.9  73.0  74.0    0.00     0
2016-07-21 18:00  11.3  13.8   151  80.8  72.0  74.2    0.00     0
2016-07-21 17:00  17.7  22.4   159  77.7  70.0  76.8    0.00     0
2016-07-21 16:00  11.5  13.2   137  75.7  67.5  75.1    0.00     0
2016-07-21 15:00   4.3   4.9   150  74.8  69.2  82.4    0.00     0
2016-07-21 14:00  10.3  12.4    77  74.5  67.3  78.0    0.00     0
2016-07-21 13:00   4.3   4.7   320  85.1  74.0  68.8    0.00     0
2016-07-21 12:00   9.1   9.9   256  83.7  74.3  73.0    0.00     0
2016-07-21 11:00   9.1  10.7   222  82.9  73.3  72.2    0.00     0
2016-07-21 10:00  11.7  14.0   182  82.0  72.9  73.5    0.00     0
2016-07-21 09:00  13.8  15.6   184  79.5  73.3  81.1    0.00     0
2016-07-21 08:00  10.1  11.7   171  76.8  73.6  89.7    0.00     0
2016-07-21 07:00   7.2   8.2   170  74.1  72.9  96.0    0.00     0
2016-07-21 06:00  10.3  12.6   155  74.1  72.5  94.7    0.00     0
2016-07-21 05:00  10.7  12.8   147  74.7  71.3  89.1    0.00     0
2016-07-21 04:00  10.1  13.2   151  75.4  70.5  84.5    0.00     0
2016-07-21 03:00  10.3  12.6   150  76.3  69.9  80.3    0.00     0
2016-07-21 02:00  10.1  13.4   152  76.6  69.8  79.1    0.00     0
2016-07-21 01:00   7.8   9.5   145  76.3  71.0  83.4    0.00     0
2016-07-21 00:00   8.4   9.9   150  77.7  71.9  82.1    0.00     0
2016-07-20 23:00   7.8   8.9   156  77.9  72.0  81.8    0.00     0
2016-07-20 22:00   7.6   8.7   154  79.5  71.9  77.1    0.00     0
2016-07-20 21:00   4.7   5.2   160  80.6  71.8  74.2    0.00     0
2016-07-20 20:00   6.0   6.6   178  82.2  70.7  67.7    0.00     0
2016-07-20 19:00   7.6   8.4   185  83.3  70.3  64.3    0.00     0
2016-07-20 18:00  11.1  12.1   187  83.7  70.6  64.2    0.00     0
2016-07-20 17:00   7.0   8.0   186  84.0  70.3  62.8    0.00     0
2016-07-20 16:00   1.6   2.5   261  84.7  67.7  56.0    0.00     0
2016-07-20 15:00   4.5   4.9    36  79.0  72.7  80.7    0.00     0
2016-07-20 14:00   8.9   9.1   315  82.9  69.5  63.3    0.00     0
2016-07-20 13:00   9.1  10.7   183  84.4  66.0  53.5    0.00     0
2016-07-20 12:00   9.1  12.6   175  83.7  66.5  55.7    0.00     0
2016-07-20 11:00   9.9  12.2   179  82.0  66.7  59.2    0.00     0
2016-07-20 10:00   7.2   8.4   137  81.5  64.8  56.4    0.00     0
2016-07-20 09:00   6.0   7.8   130  79.0  64.0  59.5    0.00     0
2016-07-20 08:00   7.8   9.5   118  75.9  62.4  62.3    0.00     0
2016-07-20 07:00   8.0   8.9   119  72.5  61.5  68.0    0.00     0
2016-07-20 06:00   8.0   9.7   129  70.9  61.1  70.7    0.00     0
2016-07-20 05:00   8.6   9.7   122  70.3  60.5  70.7    0.00     0
2016-07-20 04:00   6.8   8.0   119  70.9  60.9  70.3    0.00     0
2016-07-20 03:00   7.8   8.2   123  71.6  60.5  67.5    0.00     0
2016-07-20 02:00   7.2   8.6   106  73.2  60.4  63.8    0.00     0
2016-07-20 01:00   8.7  10.7   107  73.2  61.8  67.0    0.00     0
2016-07-20 00:00   2.5   3.9    82  74.7  63.2  67.1    0.00     0
2016-07-19 23:00   4.7   4.9    55  75.9  64.0  66.0    0.00     0
2016-07-19 22:00   2.5   2.7    53  74.8  71.4  89.0    0.00     0
2016-07-19 21:00   4.9   5.1    21  74.8  70.1  84.8    0.00     0
2016-07-19 20:00   7.8   8.4    34  75.4  68.6  79.2    0.00     0
2016-07-19 19:00  11.9  13.2    36  75.2  69.2  81.3    0.00     0
2016-07-19 18:00  11.9  12.4    35  75.2  69.5  82.2    0.00     0
2016-07-19 17:00   9.9  10.5    32  75.6  70.8  84.9    0.00     0
2016-07-19 16:00   8.6   9.1    16  75.0  70.8  86.6    0.00     0
2016-07-19 14:00   6.8   7.4     9  74.3  70.5  87.8    0.00     0
2016-07-19 13:00   8.2   8.4   337  77.0  68.0  73.3    0.00     0
2016-07-19 12:00   6.0   6.2   310  77.4  66.2  68.1    0.00     0
2016-07-19 11:00   6.0   6.2   270  78.3  64.8  62.9    0.00     0
2016-07-19 10:00   2.3   2.5   249  77.0  62.7  60.7    0.00     0
2016-07-19 09:00   3.1   3.3   242  73.0  63.4  71.4    0.00     0
2016-07-19 08:00   2.1   2.5   267  75.7  60.8  59.2    0.00     0
2016-07-19 07:00   1.2   1.7   129  71.8  58.6  62.7    0.00     0
2016-07-19 06:00   3.3   4.1   162  68.4  59.9  74.1    0.00     0
2016-07-19 05:00   2.1   2.3   158  69.8  60.9  72.9    0.00     0
2016-07-19 04:00   1.6   2.3   210  68.5  62.5  80.8    0.00     0
2016-07-19 03:00   1.9   2.5   133  68.9  61.4  76.7    0.00     0
2016-07-19 02:00   5.8   6.6   127  70.3  60.8  71.3    0.00     0
2016-07-19 01:00   6.8   7.6   136  70.7  61.8  73.1    0.00     0
2016-07-19 00:00   7.4   8.0   129  71.4  61.6  70.7    0.00     0
2016-07-18 23:00   6.4   7.4   124  73.2  60.4  63.6    0.00     0
2016-07-18 22:00   5.1   5.8   124  74.5  61.7  64.0    0.00     0
2016-07-18 21:00   4.9   5.6    82  76.1  59.7  56.2    0.00     0
2016-07-18 20:00   4.1   4.5    61  76.1  62.7  62.6    0.00     0
2016-07-18 19:00   5.4   6.0    45  75.0  64.6  69.5    0.00     0